createdAt,value
2018-05-09T00:00:59.736Z,12.41
2018-05-09T00:01:59.668Z,12.31
2018-05-09T00:02:59.592Z,12.28
2018-05-09T00:03:59.509Z,12.30
2018-05-09T00:04:59.441Z,12.30
2018-05-09T00:05:59.371Z,12.24
2018-05-09T00:06:59.285Z,12.26
2018-05-09T00:07:59.216Z,12.33
2018-05-09T00:08:59.143Z,12.31
2018-05-09T00:09:59.074Z,12.30
2018-05-09T00:10:58.993Z,12.24
2018-05-09T00:11:58.968Z,12.24
2018-05-09T00:12:58.835Z,12.18
2018-05-09T00:13:58.766Z,12.05
2018-05-09T00:14:58.688Z,11.97
2018-05-09T00:15:58.610Z,11.93
2018-05-09T00:16:58.543Z,11.89
2018-05-09T00:17:58.470Z,11.81
2018-05-09T00:18:58.387Z,11.68
2018-05-09T00:19:58.314Z,11.65
2018-05-09T00:20:59.239Z,11.69
2018-05-09T00:21:58.159Z,11.61
2018-05-09T00:22:58.091Z,11.64
2018-05-09T00:23:58.013Z,11.68
2018-05-09T00:24:57.933Z,11.67
2018-05-09T00:25:57.865Z,11.76
2018-05-09T00:26:57.791Z,11.90
2018-05-09T00:27:57.702Z,11.79
2018-05-09T00:28:57.641Z,11.84
2018-05-09T00:29:57.564Z,11.81
2018-05-09T00:30:57.485Z,11.93
2018-05-09T00:31:57.418Z,11.94
2018-05-09T00:32:57.338Z,11.95
2018-05-09T00:33:57.263Z,12.02
2018-05-09T00:34:57.189Z,12.00
2018-05-09T00:35:57.115Z,12.00
2018-05-09T00:36:57.033Z,11.94
2018-05-09T00:37:56.964Z,11.94
2018-05-09T00:38:56.884Z,11.95
2018-05-09T00:39:56.803Z,11.93
2018-05-09T00:40:56.739Z,12.03
2018-05-09T00:41:56.662Z,11.97
2018-05-09T00:42:56.578Z,11.94
2018-05-09T00:43:56.513Z,11.76
2018-05-09T00:44:56.433Z,11.78
2018-05-09T00:45:56.353Z,11.72
2018-05-09T00:46:56.285Z,11.67
2018-05-09T00:47:56.209Z,11.69
2018-05-09T00:48:56.123Z,11.67
2018-05-09T00:49:56.057Z,11.69
2018-05-09T00:50:55.987Z,11.67
2018-05-09T00:51:55.900Z,11.60
2018-05-09T00:52:55.835Z,11.60
2018-05-09T00:53:55.757Z,11.53
2018-05-09T00:54:55.672Z,11.57
2018-05-09T00:55:55.607Z,11.60
2018-05-09T00:56:55.530Z,11.59
2018-05-09T00:57:55.447Z,11.56
2018-05-09T00:58:55.385Z,11.59
2018-05-09T00:59:55.298Z,11.38
2018-05-09T01:00:55.229Z,11.34
2018-05-09T01:01:55.147Z,11.26
2018-05-09T01:02:55.070Z,11.32
2018-05-09T01:03:54.992Z,11.28
2018-05-09T01:04:54.931Z,11.23
2018-05-09T01:05:54.845Z,11.29
2018-05-09T01:06:54.776Z,11.23
2018-05-09T01:07:54.698Z,11.28
2018-05-09T01:08:54.617Z,11.31
2018-05-09T01:09:54.539Z,11.36
2018-05-09T01:10:54.475Z,11.36
2018-05-09T01:11:54.395Z,11.31
2018-05-09T01:12:54.326Z,11.31
2018-05-09T01:13:54.243Z,11.38
2018-05-09T01:14:54.167Z,11.31
2018-05-09T01:15:54.088Z,11.11
2018-05-09T01:16:54.026Z,11.02
2018-05-09T01:17:53.938Z,10.99
2018-05-09T01:18:53.879Z,10.95
2018-05-09T01:19:53.784Z,10.85
2018-05-09T01:20:53.712Z,10.67
2018-05-09T01:21:53.637Z,10.65
2018-05-09T01:22:53.568Z,10.65
2018-05-09T01:23:53.488Z,10.71
2018-05-09T01:24:53.420Z,10.65
2018-05-09T01:25:53.331Z,10.58
2018-05-09T01:26:53.262Z,10.55
2018-05-09T01:27:53.181Z,10.62
2018-05-09T01:28:53.114Z,10.49
2018-05-09T01:29:53.031Z,10.58
2018-05-09T01:30:52.959Z,10.63
2018-05-09T01:31:52.879Z,10.53
2018-05-09T01:32:52.801Z,10.58
2018-05-09T01:33:52.727Z,10.41
2018-05-09T01:34:52.658Z,10.40
2018-05-09T01:35:52.573Z,10.37
2018-05-09T01:36:52.511Z,10.29
2018-05-09T01:37:52.432Z,10.29
2018-05-09T01:38:52.346Z,10.28
2018-05-09T01:39:52.280Z,10.23
2018-05-09T01:40:52.201Z,10.22
2018-05-09T01:41:52.119Z,10.22
2018-05-09T01:42:52.055Z,10.25
2018-05-09T01:43:51.980Z,10.26
2018-05-09T01:44:51.896Z,10.29
2018-05-09T01:45:51.818Z,10.43
2018-05-09T01:46:51.752Z,10.44
2018-05-09T01:47:51.671Z,10.46
2018-05-09T01:48:51.595Z,10.40
2018-05-09T01:49:51.524Z,10.43
2018-05-09T01:50:51.442Z,10.47
2018-05-09T01:51:51.362Z,10.44
2018-05-09T01:52:51.290Z,10.41
2018-05-09T01:53:51.205Z,10.46
2018-05-09T01:54:51.150Z,10.46
2018-05-09T01:55:51.064Z,10.46
2018-05-09T01:56:50.988Z,10.39
2018-05-09T01:57:50.908Z,10.41
2018-05-09T01:58:50.831Z,10.29
2018-05-09T01:59:50.751Z,10.23
2018-05-09T02:00:50.694Z,10.11
2018-05-09T02:01:50.598Z,10.13
2018-05-09T02:02:50.532Z,10.01
2018-05-09T02:03:50.448Z,10.07
2018-05-09T02:04:50.377Z,10.04
2018-05-09T02:05:50.295Z,10.06
2018-05-09T02:06:50.223Z,10.15
2018-05-09T02:07:50.142Z,10.08
2018-05-09T02:08:50.075Z,10.11
2018-05-09T02:09:49.993Z,10.08
2018-05-09T02:10:49.927Z,10.08
2018-05-09T02:11:49.841Z,10.08
2018-05-09T02:12:49.770Z,10.10
2018-05-09T02:13:49.682Z,10.22
2018-05-09T02:14:49.617Z,10.19
2018-05-09T02:15:49.535Z,10.26
2018-05-09T02:16:49.466Z,10.40
2018-05-09T02:17:49.379Z,10.39
2018-05-09T02:18:49.312Z,10.53
2018-05-09T02:19:49.235Z,10.51
2018-05-09T02:20:49.159Z,10.58
2018-05-09T02:21:49.083Z,10.60
2018-05-09T02:22:49.007Z,10.65
2018-05-09T02:23:48.923Z,10.69
2018-05-09T02:24:48.854Z,10.65
2018-05-09T02:25:48.771Z,10.74
2018-05-09T02:26:48.701Z,10.75
2018-05-09T02:27:48.620Z,10.69
2018-05-09T02:28:48.549Z,10.65
2018-05-09T02:29:48.468Z,10.56
2018-05-09T02:30:48.399Z,10.60
2018-05-09T02:31:48.312Z,10.56
2018-05-09T02:32:48.245Z,10.60
2018-05-09T02:33:48.162Z,10.66
2018-05-09T02:34:48.092Z,10.69
2018-05-09T02:35:48.009Z,10.65
2018-05-09T02:36:47.941Z,10.71
2018-05-09T02:37:47.859Z,10.65
2018-05-09T02:38:47.791Z,10.69
2018-05-09T02:39:47.705Z,10.67
2018-05-09T02:40:47.643Z,10.73
2018-05-09T02:41:47.549Z,10.69
2018-05-09T02:42:47.485Z,10.66
2018-05-09T02:43:47.421Z,10.75
2018-05-09T02:44:47.333Z,10.85
2018-05-09T02:45:47.249Z,10.83
2018-05-09T02:46:47.183Z,10.84
2018-05-09T02:47:47.099Z,10.81
2018-05-09T02:48:47.019Z,10.93
2018-05-09T02:49:46.978Z,10.96
2018-05-09T02:50:46.880Z,11.08
2018-05-09T02:51:46.791Z,11.02
2018-05-09T02:52:46.723Z,11.13
2018-05-09T02:53:46.638Z,11.08
2018-05-09T02:54:46.566Z,11.11
2018-05-09T02:55:46.507Z,11.16
2018-05-09T02:56:46.414Z,11.16
2018-05-09T02:57:46.340Z,11.23
2018-05-09T02:58:46.271Z,11.21
2018-05-09T02:59:46.186Z,11.28
2018-05-09T03:00:46.107Z,11.29
2018-05-09T03:01:46.039Z,11.29
2018-05-09T03:02:45.953Z,11.36
2018-05-09T03:03:45.879Z,11.35
2018-05-09T03:04:45.814Z,11.43
2018-05-09T03:05:45.727Z,11.42
2018-05-09T03:06:45.651Z,11.41
2018-05-09T03:07:45.585Z,11.47
2018-05-09T03:08:45.492Z,11.51
2018-05-09T03:09:45.423Z,11.56
2018-05-09T03:10:45.353Z,11.51
2018-05-09T03:11:45.266Z,11.49
2018-05-09T03:12:45.195Z,11.42
2018-05-09T03:13:45.128Z,11.43
2018-05-09T03:14:45.040Z,11.38
2018-05-09T03:15:44.964Z,11.34
2018-05-09T03:16:44.990Z,11.23
2018-05-09T03:17:44.814Z,11.20
2018-05-09T03:18:44.735Z,11.13
2018-05-09T03:19:44.665Z,11.13
2018-05-09T03:20:44.583Z,11.10
2018-05-09T03:21:44.507Z,11.03
2018-05-09T03:22:44.438Z,11.03
2018-05-09T03:23:44.356Z,11.13
2018-05-09T03:24:44.283Z,11.13
2018-05-09T03:25:44.218Z,11.06
2018-05-09T03:26:44.217Z,11.13
2018-05-09T03:27:44.049Z,11.13
2018-05-09T03:28:44.041Z,11.13
2018-05-09T03:29:43.993Z,11.10
2018-05-09T03:30:43.824Z,11.11
2018-05-09T03:31:43.757Z,11.17
2018-05-09T03:32:43.677Z,11.24
2018-05-09T03:33:43.598Z,11.18
2018-05-09T03:34:43.569Z,11.31
2018-05-09T03:35:43.443Z,11.18
2018-05-09T03:36:43.368Z,11.29
2018-05-09T03:37:43.377Z,11.18
2018-05-09T03:38:43.217Z,11.17
2018-05-09T03:39:43.141Z,11.13
2018-05-09T03:40:43.100Z,11.11
2018-05-09T03:41:43.028Z,11.17
2018-05-09T03:42:42.916Z,10.96
2018-05-09T03:43:42.911Z,11.03
2018-05-09T03:44:42.758Z,10.99
2018-05-09T03:45:42.742Z,10.92
2018-05-09T03:46:42.724Z,10.87
2018-05-09T03:47:42.537Z,10.95
2018-05-09T03:48:42.451Z,10.92
2018-05-09T03:49:42.435Z,10.92
2018-05-09T03:50:42.301Z,10.92
2018-05-09T03:51:42.224Z,10.88
2018-05-09T03:52:42.249Z,10.77
2018-05-09T03:53:42.073Z,10.71
2018-05-09T03:54:42.000Z,10.63
2018-05-09T03:55:41.961Z,10.59
2018-05-09T03:56:41.844Z,10.60
2018-05-09T03:57:41.772Z,10.60
2018-05-09T03:58:41.778Z,10.60
2018-05-09T03:59:41.620Z,10.56
2018-05-09T04:00:41.547Z,10.56
2018-05-09T04:01:41.496Z,10.58
2018-05-09T04:02:41.394Z,10.58
2018-05-09T04:03:41.316Z,10.56
2018-05-09T04:04:41.311Z,10.55
2018-05-09T04:05:41.168Z,10.56
2018-05-09T04:06:41.084Z,10.55
2018-05-09T04:07:41.119Z,10.63
2018-05-09T04:08:40.936Z,10.65
2018-05-09T04:09:40.857Z,10.74
2018-05-09T04:10:40.781Z,10.69
2018-05-09T04:11:40.736Z,10.75
2018-05-09T04:12:40.630Z,10.87
2018-05-09T04:13:40.651Z,10.84
2018-05-09T04:14:40.521Z,10.78
2018-05-09T04:15:40.405Z,10.58
2018-05-09T04:16:40.368Z,10.39
2018-05-09T04:17:40.245Z,10.28
2018-05-09T04:18:40.170Z,10.11
2018-05-09T04:19:40.101Z,10.08
2018-05-09T04:20:40.078Z,10.10
2018-05-09T04:21:39.941Z,10.06
2018-05-09T04:22:39.886Z,10.08
2018-05-09T04:23:39.789Z,10.11
2018-05-09T04:24:39.712Z,10.25
2018-05-09T04:25:39.635Z,10.25
2018-05-09T04:26:39.612Z,10.43
2018-05-09T04:27:39.482Z,10.41
2018-05-09T04:28:39.519Z,10.53
2018-05-09T04:29:39.333Z,10.58
2018-05-09T04:30:39.260Z,10.58
2018-05-09T04:31:39.232Z,10.62
2018-05-09T04:32:39.099Z,10.49
2018-05-09T04:33:39.025Z,10.62
2018-05-09T04:34:39.049Z,10.73
2018-05-09T04:35:38.875Z,10.77
2018-05-09T04:36:38.801Z,10.69
2018-05-09T04:37:38.763Z,10.66
2018-05-09T04:38:38.641Z,10.80
2018-05-09T04:39:38.566Z,10.77
2018-05-09T04:40:38.503Z,10.88
2018-05-09T04:41:38.412Z,10.84
2018-05-09T04:42:38.345Z,10.85
2018-05-09T04:43:38.270Z,10.77
2018-05-09T04:44:38.187Z,10.73
2018-05-09T04:45:38.106Z,10.75
2018-05-09T04:46:38.103Z,10.74
2018-05-09T04:47:37.956Z,10.81
2018-05-09T04:48:37.880Z,10.80
2018-05-09T04:49:37.916Z,10.88
2018-05-09T04:50:37.723Z,10.92
2018-05-09T04:51:37.648Z,10.80
2018-05-09T04:52:37.634Z,10.93
2018-05-09T04:53:37.503Z,10.92
2018-05-09T04:54:37.429Z,10.92
2018-05-09T04:55:37.383Z,11.00
2018-05-09T04:56:37.270Z,11.08
2018-05-09T04:57:37.193Z,11.13
2018-05-09T04:58:37.293Z,11.23
2018-05-09T04:59:37.049Z,11.14
2018-05-09T05:00:36.962Z,11.24
2018-05-09T05:01:36.973Z,11.28
2018-05-09T05:02:36.816Z,11.36
2018-05-09T05:03:36.738Z,11.32
2018-05-09T05:04:36.810Z,11.38
2018-05-09T05:05:36.610Z,11.39
2018-05-09T05:06:36.661Z,11.39
2018-05-09T05:07:36.435Z,11.39
2018-05-09T05:08:36.352Z,11.47
2018-05-09T05:09:36.279Z,11.54
2018-05-09T05:10:36.200Z,11.59
2018-05-09T05:11:36.135Z,11.57
2018-05-09T05:12:36.049Z,11.64
2018-05-09T05:13:36.032Z,11.68
2018-05-09T05:14:35.894Z,11.75
2018-05-09T05:15:35.948Z,11.76
2018-05-09T05:16:35.845Z,11.87
2018-05-09T05:17:35.665Z,11.78
2018-05-09T05:18:35.594Z,11.83
2018-05-09T05:19:35.513Z,11.87
2018-05-09T05:20:35.466Z,11.95
2018-05-09T05:21:35.473Z,11.90
2018-05-09T05:22:35.290Z,12.02
2018-05-09T05:23:35.279Z,11.95
2018-05-09T05:24:35.186Z,12.06
2018-05-09T05:25:35.059Z,12.03
2018-05-09T05:26:35.092Z,12.09
2018-05-09T05:27:34.995Z,12.11
2018-05-09T05:28:34.831Z,12.16
2018-05-09T05:29:34.814Z,12.23
2018-05-09T05:30:34.710Z,12.21
2018-05-09T05:31:34.605Z,12.28
2018-05-09T05:32:34.621Z,12.28
2018-05-09T05:33:34.523Z,12.31
2018-05-09T05:34:34.377Z,12.44
2018-05-09T05:35:34.333Z,12.44
2018-05-09T05:36:34.222Z,12.49
2018-05-09T05:37:34.244Z,12.48
2018-05-09T05:38:34.081Z,12.53
2018-05-09T05:39:33.993Z,12.55
2018-05-09T05:40:33.921Z,12.60
2018-05-09T05:41:33.958Z,12.60
2018-05-09T05:42:33.864Z,12.64
2018-05-09T05:43:33.692Z,12.70
2018-05-09T05:44:33.675Z,12.73
2018-05-09T05:45:33.580Z,12.85
2018-05-09T05:46:33.465Z,12.85
2018-05-09T05:47:33.489Z,12.89
2018-05-09T05:48:33.394Z,13.00
2018-05-09T05:49:33.245Z,13.02
2018-05-09T05:50:33.199Z,13.10
2018-05-09T05:51:33.104Z,13.15
2018-05-09T05:52:33.016Z,13.10
2018-05-09T05:53:33.018Z,13.19
2018-05-09T05:54:32.864Z,13.25
2018-05-09T05:55:32.824Z,13.29
2018-05-09T05:56:32.714Z,13.40
2018-05-09T05:57:32.639Z,13.50
2018-05-09T05:58:32.570Z,13.50
2018-05-09T05:59:32.545Z,13.59
2018-05-09T06:00:32.408Z,13.61
2018-05-09T06:01:32.358Z,13.66
2018-05-09T06:02:32.262Z,13.76
2018-05-09T06:03:32.186Z,13.86
2018-05-09T06:04:32.113Z,13.96
2018-05-09T06:05:32.073Z,14.01
2018-05-09T06:06:32.015Z,14.13
2018-05-09T06:07:31.886Z,14.16
2018-05-09T06:08:31.888Z,14.24
2018-05-09T06:09:31.742Z,14.28
2018-05-09T06:10:31.660Z,14.35
2018-05-09T06:11:31.604Z,14.39
2018-05-09T06:12:31.623Z,14.47
2018-05-09T06:13:31.433Z,14.44
2018-05-09T06:14:31.417Z,14.49
2018-05-09T06:15:31.321Z,14.56
2018-05-09T06:16:31.202Z,14.60
2018-05-09T06:17:31.239Z,14.69
2018-05-09T06:18:31.140Z,14.71
2018-05-09T06:19:30.978Z,14.88
2018-05-09T06:20:30.952Z,14.74
2018-05-09T06:21:30.850Z,14.88
2018-05-09T06:22:30.760Z,14.94
2018-05-09T06:23:30.760Z,14.91
2018-05-09T06:24:30.666Z,15.06
2018-05-09T06:25:30.549Z,15.01
2018-05-09T06:26:30.585Z,15.15
2018-05-09T06:27:30.480Z,15.18
2018-05-09T06:28:30.312Z,15.31
2018-05-09T06:29:30.347Z,15.38
2018-05-09T06:30:30.201Z,15.46
2018-05-09T06:31:30.086Z,15.52
2018-05-09T06:32:30.103Z,15.53
2018-05-09T06:33:30.010Z,15.53
2018-05-09T06:34:29.868Z,15.59
2018-05-09T06:35:29.815Z,15.55
2018-05-09T06:36:29.825Z,15.63
2018-05-09T06:37:29.643Z,15.59
2018-05-09T06:38:29.630Z,15.75
2018-05-09T06:39:29.541Z,15.73
2018-05-09T06:40:29.416Z,15.81
2018-05-09T06:41:29.448Z,15.82
2018-05-09T06:42:29.355Z,15.89
2018-05-09T06:43:29.191Z,16.03
2018-05-09T06:44:29.160Z,16.14
2018-05-09T06:45:29.068Z,16.12
2018-05-09T06:46:28.973Z,16.18
2018-05-09T06:47:28.979Z,16.23
2018-05-09T06:48:28.881Z,16.22
2018-05-09T06:49:28.748Z,16.38
2018-05-09T06:50:28.792Z,16.29
2018-05-09T06:51:28.696Z,16.42
2018-05-09T06:52:28.524Z,16.52
2018-05-09T06:53:28.503Z,16.67
2018-05-09T06:54:28.408Z,16.67
2018-05-09T06:55:28.310Z,16.84
2018-05-09T06:56:28.318Z,16.89
2018-05-09T06:57:28.229Z,16.93
2018-05-09T06:58:28.088Z,16.99
2018-05-09T06:59:28.034Z,17.02
2018-05-09T07:00:28.042Z,16.99
2018-05-09T07:01:27.863Z,17.07
2018-05-09T07:02:27.848Z,17.11
2018-05-09T07:03:27.749Z,17.17
2018-05-09T07:04:27.643Z,17.18
2018-05-09T07:05:27.661Z,17.17
2018-05-09T07:06:27.786Z,17.25
2018-05-09T07:07:27.426Z,17.33
2018-05-09T07:08:27.373Z,17.36
2018-05-09T07:09:27.380Z,17.48
2018-05-09T07:10:27.197Z,17.57
2018-05-09T07:11:27.194Z,17.70
2018-05-09T07:12:27.134Z,17.64
2018-05-09T07:13:26.982Z,17.77
2018-05-09T07:14:27.004Z,17.76
2018-05-09T07:15:26.911Z,17.81
2018-05-09T07:16:26.759Z,17.92
2018-05-09T07:17:26.717Z,17.96
2018-05-09T07:18:26.721Z,18.07
2018-05-09T07:19:26.540Z,18.07
2018-05-09T07:20:26.532Z,18.09
2018-05-09T07:21:26.436Z,18.14
2018-05-09T07:22:26.330Z,18.25
2018-05-09T07:23:26.347Z,18.37
2018-05-09T07:24:26.251Z,18.37
2018-05-09T07:25:26.105Z,18.53
2018-05-09T07:26:26.060Z,18.61
2018-05-09T07:27:26.068Z,18.58
2018-05-09T07:28:25.887Z,18.73
2018-05-09T07:29:25.875Z,18.73
2018-05-09T07:30:25.779Z,18.92
2018-05-09T07:31:25.669Z,19.01
2018-05-09T07:32:25.693Z,18.97
2018-05-09T07:33:25.596Z,19.17
2018-05-09T07:34:25.454Z,19.17
2018-05-09T07:35:25.479Z,19.20
2018-05-09T07:36:25.308Z,19.27
2018-05-09T07:37:25.230Z,19.33
2018-05-09T07:38:25.216Z,19.33
2018-05-09T07:39:25.092Z,19.43
2018-05-09T07:40:25.131Z,19.48
2018-05-09T07:41:24.944Z,19.50
2018-05-09T07:42:24.877Z,19.46
2018-05-09T07:43:24.801Z,19.48
2018-05-09T07:44:24.848Z,19.64
2018-05-09T07:45:24.663Z,19.73
2018-05-09T07:46:24.656Z,19.87
2018-05-09T07:47:24.519Z,19.78
2018-05-09T07:48:24.443Z,19.83
2018-05-09T07:49:24.371Z,20.03
2018-05-09T07:50:24.376Z,19.90
2018-05-09T07:51:24.229Z,20.06
2018-05-09T07:52:24.184Z,20.13
2018-05-09T07:53:24.088Z,20.31
2018-05-09T07:54:24.020Z,20.46
2018-05-09T07:55:23.965Z,20.59
2018-05-09T07:56:23.906Z,20.65
2018-05-09T07:57:23.821Z,20.68
2018-05-09T07:58:23.816Z,20.87
2018-05-09T07:59:23.704Z,21.06
2018-05-09T08:00:23.593Z,21.02
2018-05-09T08:01:23.525Z,21.05
2018-05-09T08:02:23.534Z,21.26
2018-05-09T08:03:23.379Z,21.27
2018-05-09T08:04:23.347Z,21.46
2018-05-09T08:05:23.244Z,21.33
2018-05-09T08:06:23.173Z,21.31
2018-05-09T08:07:23.101Z,21.44
2018-05-09T08:08:23.066Z,21.54
2018-05-09T08:09:22.965Z,21.45
2018-05-09T08:10:22.979Z,21.44
2018-05-09T08:11:22.820Z,21.53
2018-05-09T08:12:22.751Z,21.49
2018-05-09T08:13:22.693Z,21.48
2018-05-09T08:14:22.691Z,21.42
2018-05-09T08:15:22.548Z,21.51
2018-05-09T08:16:22.504Z,21.59
2018-05-09T08:17:22.401Z,21.72
2018-05-09T08:18:22.332Z,21.64
2018-05-09T08:19:22.272Z,21.79
2018-05-09T08:20:22.222Z,21.79
2018-05-09T08:21:22.125Z,21.84
2018-05-09T08:22:22.134Z,21.92
2018-05-09T08:23:21.991Z,22.08
2018-05-09T08:24:21.916Z,22.17
2018-05-09T08:25:21.848Z,22.15
2018-05-09T08:26:21.856Z,22.22
2018-05-09T08:27:21.708Z,22.41
2018-05-09T08:28:21.663Z,22.46
2018-05-09T08:29:21.580Z,22.56
2018-05-09T08:30:21.536Z,22.69
2018-05-09T08:31:21.435Z,22.59
2018-05-09T08:32:21.481Z,22.54
2018-05-09T08:33:21.323Z,22.62
2018-05-09T08:34:21.289Z,22.52
2018-05-09T08:35:21.170Z,22.63
2018-05-09T08:36:21.226Z,22.56
2018-05-09T08:37:21.025Z,22.39
2018-05-09T08:38:21.019Z,22.53
2018-05-09T08:39:20.884Z,22.56
2018-05-09T08:40:20.923Z,22.54
2018-05-09T08:41:20.751Z,22.50
2018-05-09T08:42:20.732Z,22.60
2018-05-09T08:43:20.634Z,22.59
2018-05-09T08:44:20.642Z,22.78
2018-05-09T08:45:20.476Z,22.92
2018-05-09T08:46:20.451Z,23.08
2018-05-09T08:47:20.341Z,23.31
2018-05-09T08:48:20.362Z,23.37
2018-05-09T08:49:20.287Z,23.46
2018-05-09T08:50:20.174Z,23.60
2018-05-09T08:51:20.073Z,23.71
2018-05-09T08:52:20.082Z,23.78
2018-05-09T08:53:19.939Z,23.72
2018-05-09T08:54:19.895Z,23.92
2018-05-09T08:55:19.824Z,23.97
2018-05-09T08:56:19.800Z,24.01
2018-05-09T08:57:19.662Z,24.02
2018-05-09T08:58:19.614Z,24.10
2018-05-09T08:59:19.528Z,24.22
2018-05-09T09:00:19.524Z,24.27
2018-05-09T09:01:19.390Z,24.11
2018-05-09T09:02:19.431Z,23.97
2018-05-09T09:03:19.256Z,23.97
2018-05-09T09:04:19.297Z,23.90
2018-05-09T09:05:19.126Z,23.95
2018-05-09T09:06:19.192Z,23.90
2018-05-09T09:07:18.996Z,23.85
2018-05-09T09:08:18.963Z,23.60
2018-05-09T09:09:18.854Z,23.65
2018-05-09T09:10:18.880Z,23.68
2018-05-09T09:11:18.719Z,23.86
2018-05-09T09:12:18.681Z,23.90
2018-05-09T09:13:18.588Z,23.86
2018-05-09T09:14:18.593Z,23.86
2018-05-09T09:15:18.525Z,24.05
2018-05-09T09:16:18.502Z,24.16
2018-05-09T09:17:18.318Z,24.44
2018-05-09T09:18:18.311Z,24.50
2018-05-09T09:19:18.190Z,24.60
2018-05-09T09:20:18.225Z,24.76
2018-05-09T09:21:18.059Z,24.85
2018-05-09T09:22:18.029Z,24.91
2018-05-09T09:23:17.917Z,25.10
2018-05-09T09:24:17.940Z,25.01
2018-05-09T09:25:17.786Z,24.83
2018-05-09T09:26:17.754Z,24.67
2018-05-09T09:27:17.653Z,24.30
2018-05-09T09:28:17.593Z,24.05
2018-05-09T09:29:17.550Z,23.75
2018-05-09T09:30:17.470Z,23.60
2018-05-09T09:31:17.389Z,23.71
2018-05-09T09:32:17.379Z,23.89
2018-05-09T09:33:17.255Z,24.11
2018-05-09T09:34:17.186Z,24.22
2018-05-09T09:35:17.196Z,24.25
2018-05-09T09:36:17.055Z,24.17
2018-05-09T09:37:16.988Z,24.22
2018-05-09T09:38:17.012Z,24.22
2018-05-09T09:39:16.854Z,24.29
2018-05-09T09:40:16.790Z,24.40
2018-05-09T09:41:16.827Z,24.56
2018-05-09T09:42:16.658Z,24.48
2018-05-09T09:43:16.596Z,24.11
2018-05-09T09:44:16.642Z,24.04
2018-05-09T09:45:16.459Z,23.97
2018-05-09T09:46:16.395Z,23.71
2018-05-09T09:47:16.353Z,23.48
2018-05-09T09:48:16.260Z,23.29
2018-05-09T09:49:16.193Z,23.23
2018-05-09T09:50:16.167Z,23.02
2018-05-09T09:51:16.067Z,22.86
2018-05-09T09:52:16.000Z,22.83
2018-05-09T09:53:15.987Z,22.96
2018-05-09T09:54:15.867Z,23.22
2018-05-09T09:55:15.797Z,23.38
2018-05-09T09:56:15.801Z,23.46
2018-05-09T09:57:15.668Z,23.45
2018-05-09T09:58:15.600Z,23.34
2018-05-09T09:59:15.615Z,23.50
2018-05-09T10:00:15.462Z,23.52
2018-05-09T10:01:15.395Z,23.64
2018-05-09T10:02:15.427Z,23.86
2018-05-09T10:03:15.263Z,23.97
2018-05-09T10:04:15.195Z,23.87
2018-05-09T10:05:15.247Z,23.82
2018-05-09T10:06:15.084Z,23.70
2018-05-09T10:07:14.993Z,23.61
2018-05-09T10:08:14.957Z,23.72
2018-05-09T10:09:14.863Z,23.67
2018-05-09T10:10:14.801Z,23.79
2018-05-09T10:11:14.776Z,23.83
2018-05-09T10:12:14.664Z,23.64
2018-05-09T10:13:14.601Z,23.33
2018-05-09T10:14:14.595Z,23.37
2018-05-09T10:15:14.469Z,23.43
2018-05-09T10:16:14.403Z,23.55
2018-05-09T10:17:14.410Z,23.67
2018-05-09T10:18:14.268Z,23.56
2018-05-09T10:19:15.004Z,23.48
2018-05-09T10:20:14.136Z,23.58
2018-05-09T10:21:14.128Z,23.53
2018-05-09T10:22:14.002Z,23.58
2018-05-09T10:23:14.054Z,23.78
2018-05-09T10:24:13.866Z,23.79
2018-05-09T10:25:13.804Z,23.82
2018-05-09T10:26:13.752Z,23.86
2018-05-09T10:27:13.666Z,23.98
2018-05-09T10:28:13.603Z,24.22
2018-05-09T10:29:13.573Z,24.45
2018-05-09T10:30:13.474Z,24.53
2018-05-09T10:31:13.404Z,24.48
2018-05-09T10:32:13.379Z,24.54
2018-05-09T10:33:13.270Z,24.53
2018-05-09T10:34:13.202Z,24.54
2018-05-09T10:35:13.198Z,24.41
2018-05-09T10:36:13.068Z,24.22
2018-05-09T10:37:13.001Z,24.16
2018-05-09T10:38:13.011Z,24.29
2018-05-09T10:39:12.872Z,24.37
2018-05-09T10:40:12.797Z,24.45
2018-05-09T10:41:12.742Z,24.40
2018-05-09T10:42:12.732Z,24.35
2018-05-09T10:43:12.602Z,24.25
2018-05-09T10:44:12.643Z,24.27
2018-05-09T10:45:12.472Z,24.41
2018-05-09T10:46:12.402Z,24.42
2018-05-09T10:47:12.459Z,24.41
2018-05-09T10:48:12.271Z,24.69
2018-05-09T10:49:12.207Z,24.78
2018-05-09T10:50:12.167Z,25.05
2018-05-09T10:51:12.075Z,25.09
2018-05-09T10:52:12.007Z,25.19
2018-05-09T10:53:11.984Z,25.22
2018-05-09T10:54:11.880Z,25.05
2018-05-09T10:55:11.809Z,24.91
2018-05-09T10:56:11.801Z,24.82
2018-05-09T10:57:11.719Z,24.47
2018-05-09T10:58:11.615Z,24.45
2018-05-09T10:59:11.555Z,24.41
2018-05-09T11:00:11.484Z,24.45
2018-05-09T11:01:11.415Z,24.62
2018-05-09T11:02:11.431Z,24.56
2018-05-09T11:03:11.285Z,24.67
2018-05-09T11:04:11.215Z,24.67
2018-05-09T11:05:11.322Z,24.57
2018-05-09T11:06:11.089Z,24.53
2018-05-09T11:07:11.020Z,24.64
2018-05-09T11:08:11.060Z,24.67
2018-05-09T11:09:10.892Z,24.73
2018-05-09T11:10:10.827Z,24.64
2018-05-09T11:11:10.778Z,24.80
2018-05-09T11:12:10.689Z,24.88
2018-05-09T11:13:10.625Z,24.79
2018-05-09T11:14:10.590Z,24.71
2018-05-09T11:15:10.491Z,24.57
2018-05-09T11:16:10.423Z,24.41
2018-05-09T11:17:10.402Z,24.22
2018-05-09T11:18:10.295Z,24.17
2018-05-09T11:19:10.226Z,24.11
2018-05-09T11:20:10.222Z,24.40
2018-05-09T11:21:10.095Z,24.47
2018-05-09T11:22:10.032Z,24.63
2018-05-09T11:23:10.030Z,24.66
2018-05-09T11:24:09.898Z,24.80
2018-05-09T11:25:09.837Z,24.90
2018-05-09T11:26:09.852Z,24.88
2018-05-09T11:27:09.701Z,24.86
2018-05-09T11:28:09.638Z,25.02
2018-05-09T11:29:09.663Z,25.09
2018-05-09T11:30:09.506Z,25.22
2018-05-09T11:31:09.438Z,25.31
2018-05-09T11:32:09.481Z,25.41
2018-05-09T11:33:09.304Z,25.55
2018-05-09T11:34:09.243Z,25.70
2018-05-09T11:35:09.193Z,25.74
2018-05-09T11:36:09.111Z,25.82
2018-05-09T11:37:09.044Z,25.70
2018-05-09T11:38:09.012Z,25.64
2018-05-09T11:39:08.916Z,25.68
2018-05-09T11:40:08.848Z,25.59
2018-05-09T11:41:08.822Z,25.45
2018-05-09T11:42:08.718Z,25.25
2018-05-09T11:43:08.650Z,25.15
2018-05-09T11:44:08.640Z,25.13
2018-05-09T11:45:08.525Z,25.16
2018-05-09T11:46:08.452Z,25.02
2018-05-09T11:47:08.453Z,24.95
2018-05-09T11:48:08.331Z,24.91
2018-05-09T11:49:08.257Z,24.79
2018-05-09T11:50:08.271Z,24.71
2018-05-09T11:51:08.131Z,24.78
2018-05-09T11:52:08.065Z,24.73
2018-05-09T11:53:08.107Z,24.79
2018-05-09T11:54:07.933Z,24.80
2018-05-09T11:55:07.871Z,24.93
2018-05-09T11:56:07.922Z,25.05
2018-05-09T11:57:07.734Z,25.19
2018-05-09T11:58:07.669Z,25.30
2018-05-09T11:59:07.718Z,25.47
2018-05-09T12:00:07.539Z,25.46
2018-05-09T12:01:07.479Z,25.56
2018-05-09T12:02:07.426Z,25.55
2018-05-09T12:03:07.438Z,25.56
2018-05-09T12:04:07.277Z,25.68
2018-05-09T12:05:07.247Z,25.60
2018-05-09T12:06:07.148Z,25.62
2018-05-09T12:07:07.081Z,25.67
2018-05-09T12:08:09.118Z,25.72
2018-05-09T12:09:06.947Z,25.87
2018-05-09T12:10:06.885Z,25.92
2018-05-09T12:11:06.820Z,25.86
2018-05-09T12:12:08.834Z,25.77
2018-05-09T12:13:06.697Z,25.79
2018-05-09T12:14:06.695Z,25.84
2018-05-09T12:15:06.559Z,25.89
2018-05-09T12:16:06.496Z,26.04
2018-05-09T12:17:06.515Z,26.11
2018-05-09T12:18:06.366Z,25.96
2018-05-09T12:19:06.293Z,25.83
2018-05-09T12:20:06.237Z,25.57
2018-05-09T12:21:06.229Z,25.42
2018-05-09T12:22:06.131Z,25.30
2018-05-09T12:23:06.040Z,25.27
2018-05-09T12:24:06.043Z,25.12
2018-05-09T12:25:05.946Z,25.13
2018-05-09T12:26:05.845Z,25.05
2018-05-09T12:27:05.862Z,24.90
2018-05-09T12:28:05.763Z,24.83
2018-05-09T12:29:05.653Z,24.76
2018-05-09T12:30:05.676Z,24.85
2018-05-09T12:31:05.520Z,24.80
2018-05-09T12:32:05.485Z,24.83
2018-05-09T12:33:05.394Z,24.83
2018-05-09T12:34:05.322Z,24.78
2018-05-09T12:35:05.258Z,24.79
2018-05-09T12:36:05.306Z,25.04
2018-05-09T12:37:05.211Z,25.12
2018-05-09T12:38:05.066Z,25.16
2018-05-09T12:39:05.020Z,25.50
2018-05-09T12:40:04.932Z,25.68
2018-05-09T12:41:04.938Z,25.89
2018-05-09T12:42:04.798Z,26.12
2018-05-09T12:43:04.737Z,26.05
2018-05-09T12:44:04.670Z,26.02
2018-05-09T12:45:04.660Z,25.86
2018-05-09T12:46:05.583Z,25.82
2018-05-09T12:47:04.473Z,25.68
2018-05-09T12:48:04.468Z,25.57
2018-05-09T12:49:04.368Z,25.50
2018-05-09T12:50:04.280Z,25.40
2018-05-09T12:51:04.280Z,25.42
2018-05-09T12:52:04.185Z,25.34